sensor_id;sensor_type;location;lat;lon;timestamp;temperature;humidity
52321;DHT22;38261;54.090;13.382;2023-06-26T00:00:42;20.00;99.90
52321;DHT22;38261;54.090;13.382;2023-06-26T00:02:04;20.00;99.90
52321;DHT22;38261;54.090;13.382;2023-06-26T00:03:26;19.90;99.90
52321;DHT22;38261;54.090;13.382;2023-06-26T00:04:48;20.00;99.90
52321;DHT22;38261;54.090;13.382;2023-06-26T00:06:11;19.90;99.90
52321;DHT22;38261;54.090;13.382;2023-06-26T00:07:33;19.90;99.90
52321;DHT22;38261;54.090;13.382;2023-06-26T00:08:58;19.90;99.90
52321;DHT22;38261;54.090;13.382;2023-06-26T00:10:20;19.90;99.90
52321;DHT22;38261;54.090;13.382;2023-06-26T00:11:43;19.90;99.90
52321;DHT22;38261;54.090;13.382;2023-06-26T00:13:05;19.80;99.90
52321;DHT22;38261;54.090;13.382;2023-06-26T00:14:27;19.80;99.90
52321;DHT22;38261;54.090;13.382;2023-06-26T00:15:50;19.80;99.90
52321;DHT22;38261;54.090;13.382;2023-06-26T00:17:12;19.80;99.90
52321;DHT22;38261;54.090;13.382;2023-06-26T00:18:34;19.80;99.90
52321;DHT22;38261;54.090;13.382;2023-06-26T00:19:56;19.80;99.90
52321;DHT22;38261;54.090;13.382;2023-06-26T00:21:18;19.80;99.90
52321;DHT22;38261;54.090;13.382;2023-06-26T00:22:41;19.70;99.90
52321;DHT22;38261;54.090;13.382;2023-06-26T00:24:03;19.70;99.90
52321;DHT22;38261;54.090;13.382;2023-06-26T00:25:26;19.70;99.90
52321;DHT22;38261;54.090;13.382;2023-06-26T00:26:48;19.70;99.90
52321;DHT22;38261;54.090;13.382;2023-06-26T00:28:10;19.60;99.90
52321;DHT22;38261;54.090;13.382;2023-06-26T00:29:33;19.60;99.90
52321;DHT22;38261;54.090;13.382;2023-06-26T00:30:55;19.60;99.90
52321;DHT22;38261;54.090;13.382;2023-06-26T00:32:17;19.60;99.90
52321;DHT22;38261;54.090;13.382;2023-06-26T00:33:39;19.60;99.90
52321;DHT22;38261;54.090;13.382;2023-06-26T00:35:01;19.60;99.90
52321;DHT22;38261;54.090;13.382;2023-06-26T00:36:23;19.60;99.90
52321;DHT22;38261;54.090;13.382;2023-06-26T00:37:45;19.60;99.90
52321;DHT22;38261;54.090;13.382;2023-06-26T00:39:07;19.60;99.90
52321;DHT22;38261;54.090;13.382;2023-06-26T00:40:29;19.60;99.90
52321;DHT22;38261;54.090;13.382;2023-06-26T00:41:52;19.50;99.90
52321;DHT22;38261;54.090;13.382;2023-06-26T00:43:17;19.50;99.90
52321;DHT22;38261;54.090;13.382;2023-06-26T00:44:39;19.50;99.90
52321;DHT22;38261;54.090;13.382;2023-06-26T00:46:01;19.50;99.90
52321;DHT22;38261;54.090;13.382;2023-06-26T00:47:24;19.50;99.90
52321;DHT22;38261;54.090;13.382;2023-06-26T00:48:48;19.50;99.90
52321;DHT22;38261;54.090;13.382;2023-06-26T00:50:11;19.50;99.90
52321;DHT22;38261;54.090;13.382;2023-06-26T00:51:33;19.40;99.90
52321;DHT22;38261;54.090;13.382;2023-06-26T00:52:56;19.40;99.90
52321;DHT22;38261;54.090;13.382;2023-06-26T00:54:22;19.40;99.90
52321;DHT22;38261;54.090;13.382;2023-06-26T00:55:44;19.40;99.90
52321;DHT22;38261;54.090;13.382;2023-06-26T00:57:07;19.40;99.90
52321;DHT22;38261;54.090;13.382;2023-06-26T00:58:29;19.30;99.90
52321;DHT22;38261;54.090;13.382;2023-06-26T00:59:51;19.30;99.90
52321;DHT22;38261;54.090;13.382;2023-06-26T01:01:13;19.40;99.90
52321;DHT22;38261;54.090;13.382;2023-06-26T01:02:39;19.40;99.90
52321;DHT22;38261;54.090;13.382;2023-06-26T01:04:01;19.30;99.90
52321;DHT22;38261;54.090;13.382;2023-06-26T01:05:24;19.30;99.90
52321;DHT22;38261;54.090;13.382;2023-06-26T01:06:47;19.30;99.90
52321;DHT22;38261;54.090;13.382;2023-06-26T01:08:14;19.30;99.90
52321;DHT22;38261;54.090;13.382;2023-06-26T01:09:36;19.30;99.90
52321;DHT22;38261;54.090;13.382;2023-06-26T01:10:59;19.30;99.90
52321;DHT22;38261;54.090;13.382;2023-06-26T01:12:21;19.30;99.90
52321;DHT22;38261;54.090;13.382;2023-06-26T01:13:44;19.30;99.90
52321;DHT22;38261;54.090;13.382;2023-06-26T01:15:07;19.30;99.90
52321;DHT22;38261;54.090;13.382;2023-06-26T01:16:30;19.30;99.90
52321;DHT22;38261;54.090;13.382;2023-06-26T01:17:53;19.30;99.90
52321;DHT22;38261;54.090;13.382;2023-06-26T01:19:34;19.30;99.90
52321;DHT22;38261;54.090;13.382;2023-06-26T01:20:57;19.30;99.90
52321;DHT22;38261;54.090;13.382;2023-06-26T01:24:17;19.40;99.90
52321;DHT22;38261;54.090;13.382;2023-06-26T01:27:27;19.40;99.90
52321;DHT22;38261;54.090;13.382;2023-06-26T01:28:53;19.40;99.90
52321;DHT22;38261;54.090;13.382;2023-06-26T01:30:16;19.40;99.90
52321;DHT22;38261;54.090;13.382;2023-06-26T01:31:42;19.40;99.90
52321;DHT22;38261;54.090;13.382;2023-06-26T01:33:06;19.40;99.90
52321;DHT22;38261;54.090;13.382;2023-06-26T01:34:28;19.40;99.90
52321;DHT22;38261;54.090;13.382;2023-06-26T01:35:51;19.50;99.90
52321;DHT22;38261;54.090;13.382;2023-06-26T01:37:13;19.50;99.90
52321;DHT22;38261;54.090;13.382;2023-06-26T01:38:35;19.50;99.90
52321;DHT22;38261;54.090;13.382;2023-06-26T01:39:58;19.50;99.90
52321;DHT22;38261;54.090;13.382;2023-06-26T01:41:20;19.50;99.90
52321;DHT22;38261;54.090;13.382;2023-06-26T01:42:42;19.60;99.90
52321;DHT22;38261;54.090;13.382;2023-06-26T01:44:16;19.60;99.90
52321;DHT22;38261;54.090;13.382;2023-06-26T01:45:39;19.60;99.90
52321;DHT22;38261;54.090;13.382;2023-06-26T01:47:04;19.60;99.90
52321;DHT22;38261;54.090;13.382;2023-06-26T01:48:32;19.70;99.90
52321;DHT22;38261;54.090;13.382;2023-06-26T01:50:12;19.70;99.90
52321;DHT22;38261;54.090;13.382;2023-06-26T01:51:45;19.70;99.90
52321;DHT22;38261;54.090;13.382;2023-06-26T01:53:16;19.70;99.90
52321;DHT22;38261;54.090;13.382;2023-06-26T01:54:46;19.70;99.90
52321;DHT22;38261;54.090;13.382;2023-06-26T01:56:15;19.70;99.90
52321;DHT22;38261;54.090;13.382;2023-06-26T01:57:39;19.80;99.90
52321;DHT22;38261;54.090;13.382;2023-06-26T01:59:02;19.80;99.90
52321;DHT22;38261;54.090;13.382;2023-06-26T02:00:28;19.80;99.90
52321;DHT22;38261;54.090;13.382;2023-06-26T02:01:52;19.80;99.90
52321;DHT22;38261;54.090;13.382;2023-06-26T02:03:14;19.80;99.90
52321;DHT22;38261;54.090;13.382;2023-06-26T02:04:37;19.80;99.90
52321;DHT22;38261;54.090;13.382;2023-06-26T02:05:59;19.80;99.90
52321;DHT22;38261;54.090;13.382;2023-06-26T02:07:21;19.80;99.90
52321;DHT22;38261;54.090;13.382;2023-06-26T02:08:43;19.90;99.90
52321;DHT22;38261;54.090;13.382;2023-06-26T02:10:06;19.90;99.90
52321;DHT22;38261;54.090;13.382;2023-06-26T02:11:28;19.90;99.90
52321;DHT22;38261;54.090;13.382;2023-06-26T02:12:50;19.90;99.90
52321;DHT22;38261;54.090;13.382;2023-06-26T02:14:12;19.90;99.90
52321;DHT22;38261;54.090;13.382;2023-06-26T02:15:35;19.90;99.90
52321;DHT22;38261;54.090;13.382;2023-06-26T02:16:57;19.90;99.90
52321;DHT22;38261;54.090;13.382;2023-06-26T02:18:19;19.90;99.90
52321;DHT22;38261;54.090;13.382;2023-06-26T02:19:44;19.90;99.90
52321;DHT22;38261;54.090;13.382;2023-06-26T02:21:10;19.90;99.90
52321;DHT22;38261;54.090;13.382;2023-06-26T02:22:32;19.90;99.90
52321;DHT22;38261;54.090;13.382;2023-06-26T02:23:54;19.90;99.90
52321;DHT22;38261;54.090;13.382;2023-06-26T02:25:17;19.90;99.90
52321;DHT22;38261;54.090;13.382;2023-06-26T02:26:40;19.90;99.90
52321;DHT22;38261;54.090;13.382;2023-06-26T02:28:02;19.90;99.90
52321;DHT22;38261;54.090;13.382;2023-06-26T02:29:24;19.90;99.90
52321;DHT22;38261;54.090;13.382;2023-06-26T02:30:46;19.90;99.90
52321;DHT22;38261;54.090;13.382;2023-06-26T02:32:08;19.90;99.90
52321;DHT22;38261;54.090;13.382;2023-06-26T02:33:30;19.90;99.90
52321;DHT22;38261;54.090;13.382;2023-06-26T02:34:54;19.90;99.90
52321;DHT22;38261;54.090;13.382;2023-06-26T02:36:16;19.90;99.90
52321;DHT22;38261;54.090;13.382;2023-06-26T02:37:38;19.80;99.90
52321;DHT22;38261;54.090;13.382;2023-06-26T02:39:00;19.80;99.90
52321;DHT22;38261;54.090;13.382;2023-06-26T02:40:22;19.80;99.90
52321;DHT22;38261;54.090;13.382;2023-06-26T02:41:44;19.80;99.90
52321;DHT22;38261;54.090;13.382;2023-06-26T02:43:07;19.80;99.90
52321;DHT22;38261;54.090;13.382;2023-06-26T02:44:29;19.80;99.90
52321;DHT22;38261;54.090;13.382;2023-06-26T02:45:51;19.80;99.90
52321;DHT22;38261;54.090;13.382;2023-06-26T02:47:13;19.80;99.90
52321;DHT22;38261;54.090;13.382;2023-06-26T02:48:35;19.80;99.90
52321;DHT22;38261;54.090;13.382;2023-06-26T02:49:57;19.80;99.90
52321;DHT22;38261;54.090;13.382;2023-06-26T02:51:19;19.80;99.90
52321;DHT22;38261;54.090;13.382;2023-06-26T02:52:42;19.80;99.90
52321;DHT22;38261;54.090;13.382;2023-06-26T02:54:04;19.80;99.90
52321;DHT22;38261;54.090;13.382;2023-06-26T02:55:27;19.80;99.90
52321;DHT22;38261;54.090;13.382;2023-06-26T02:56:49;19.80;99.90
52321;DHT22;38261;54.090;13.382;2023-06-26T02:58:11;19.80;99.90
52321;DHT22;38261;54.090;13.382;2023-06-26T02:59:34;19.90;99.90
52321;DHT22;38261;54.090;13.382;2023-06-26T03:00:56;19.90;99.90
52321;DHT22;38261;54.090;13.382;2023-06-26T03:02:19;19.90;99.90
52321;DHT22;38261;54.090;13.382;2023-06-26T03:03:41;19.90;99.90
52321;DHT22;38261;54.090;13.382;2023-06-26T03:05:03;19.90;99.90
52321;DHT22;38261;54.090;13.382;2023-06-26T03:06:27;19.90;99.90
52321;DHT22;38261;54.090;13.382;2023-06-26T03:07:49;19.90;99.90
52321;DHT22;38261;54.090;13.382;2023-06-26T03:09:11;19.90;99.90
52321;DHT22;38261;54.090;13.382;2023-06-26T03:10:33;19.90;99.90
52321;DHT22;38261;54.090;13.382;2023-06-26T03:11:56;20.00;99.90
52321;DHT22;38261;54.090;13.382;2023-06-26T03:13:18;20.00;99.90
52321;DHT22;38261;54.090;13.382;2023-06-26T03:14:40;20.00;99.90
52321;DHT22;38261;54.090;13.382;2023-06-26T03:16:03;20.00;99.90
52321;DHT22;38261;54.090;13.382;2023-06-26T03:17:26;20.10;99.90
52321;DHT22;38261;54.090;13.382;2023-06-26T03:18:48;20.10;99.90
52321;DHT22;38261;54.090;13.382;2023-06-26T03:20:10;20.10;99.90
52321;DHT22;38261;54.090;13.382;2023-06-26T03:21:32;20.20;99.90
52321;DHT22;38261;54.090;13.382;2023-06-26T03:22:55;20.20;99.90
52321;DHT22;38261;54.090;13.382;2023-06-26T03:24:18;20.30;99.90
52321;DHT22;38261;54.090;13.382;2023-06-26T03:25:40;20.40;99.90
52321;DHT22;38261;54.090;13.382;2023-06-26T03:27:02;20.60;99.90
52321;DHT22;38261;54.090;13.382;2023-06-26T03:28:25;21.00;99.90
52321;DHT22;38261;54.090;13.382;2023-06-26T03:29:48;21.50;99.90
52321;DHT22;38261;54.090;13.382;2023-06-26T03:31:10;22.00;99.90
52321;DHT22;38261;54.090;13.382;2023-06-26T03:32:32;22.50;99.90
52321;DHT22;38261;54.090;13.382;2023-06-26T03:33:54;23.00;99.90
52321;DHT22;38261;54.090;13.382;2023-06-26T03:35:16;23.40;99.90
52321;DHT22;38261;54.090;13.382;2023-06-26T03:36:39;23.80;99.90
52321;DHT22;38261;54.090;13.382;2023-06-26T03:38:04;24.20;99.90
52321;DHT22;38261;54.090;13.382;2023-06-26T03:39:26;24.60;99.90
52321;DHT22;38261;54.090;13.382;2023-06-26T03:40:48;25.00;99.90
52321;DHT22;38261;54.090;13.382;2023-06-26T03:42:10;25.30;99.90
52321;DHT22;38261;54.090;13.382;2023-06-26T03:43:32;25.60;99.90
52321;DHT22;38261;54.090;13.382;2023-06-26T03:44:55;25.90;99.90
52321;DHT22;38261;54.090;13.382;2023-06-26T03:46:17;26.20;99.90
52321;DHT22;38261;54.090;13.382;2023-06-26T03:47:39;26.40;99.90
52321;DHT22;38261;54.090;13.382;2023-06-26T03:49:01;26.70;99.90
52321;DHT22;38261;54.090;13.382;2023-06-26T03:50:23;26.90;99.90
52321;DHT22;38261;54.090;13.382;2023-06-26T03:51:45;27.20;99.90
52321;DHT22;38261;54.090;13.382;2023-06-26T03:53:08;27.40;99.90
52321;DHT22;38261;54.090;13.382;2023-06-26T03:54:30;27.70;99.90
52321;DHT22;38261;54.090;13.382;2023-06-26T03:55:52;27.90;99.90
52321;DHT22;38261;54.090;13.382;2023-06-26T03:57:14;28.00;99.90
52321;DHT22;38261;54.090;13.382;2023-06-26T03:58:36;28.20;99.90
52321;DHT22;38261;54.090;13.382;2023-06-26T03:59:58;28.30;99.90
52321;DHT22;38261;54.090;13.382;2023-06-26T04:01:20;28.40;99.90
52321;DHT22;38261;54.090;13.382;2023-06-26T04:02:43;28.60;99.90
52321;DHT22;38261;54.090;13.382;2023-06-26T04:04:06;28.60;99.90
52321;DHT22;38261;54.090;13.382;2023-06-26T04:05:28;28.40;99.90
52321;DHT22;38261;54.090;13.382;2023-06-26T04:06:50;28.10;99.90
52321;DHT22;38261;54.090;13.382;2023-06-26T04:08:13;27.90;99.90
52321;DHT22;38261;54.090;13.382;2023-06-26T04:09:35;28.10;99.90
52321;DHT22;38261;54.090;13.382;2023-06-26T04:10:57;28.30;99.90
52321;DHT22;38261;54.090;13.382;2023-06-26T04:12:20;28.50;99.90
52321;DHT22;38261;54.090;13.382;2023-06-26T04:13:42;28.90;99.90
52321;DHT22;38261;54.090;13.382;2023-06-26T04:15:05;29.10;99.90
52321;DHT22;38261;54.090;13.382;2023-06-26T04:16:28;29.30;99.90
52321;DHT22;38261;54.090;13.382;2023-06-26T04:17:50;29.60;99.90
52321;DHT22;38261;54.090;13.382;2023-06-26T04:19:13;29.70;99.90
52321;DHT22;38261;54.090;13.382;2023-06-26T04:20:40;29.90;99.90
52321;DHT22;38261;54.090;13.382;2023-06-26T04:22:03;30.00;99.90
52321;DHT22;38261;54.090;13.382;2023-06-26T04:23:25;30.00;99.90
52321;DHT22;38261;54.090;13.382;2023-06-26T04:24:47;29.70;99.90
52321;DHT22;38261;54.090;13.382;2023-06-26T04:26:10;29.20;99.90
52321;DHT22;38261;54.090;13.382;2023-06-26T04:27:35;28.60;99.90
52321;DHT22;38261;54.090;13.382;2023-06-26T04:29:00;28.20;99.90
52321;DHT22;38261;54.090;13.382;2023-06-26T04:30:22;28.20;99.90
52321;DHT22;38261;54.090;13.382;2023-06-26T04:31:44;28.50;99.90
52321;DHT22;38261;54.090;13.382;2023-06-26T04:33:08;28.90;99.90
52321;DHT22;38261;54.090;13.382;2023-06-26T04:34:33;29.30;99.90
52321;DHT22;38261;54.090;13.382;2023-06-26T04:35:57;29.70;99.90
52321;DHT22;38261;54.090;13.382;2023-06-26T04:37:20;30.20;99.90
52321;DHT22;38261;54.090;13.382;2023-06-26T04:38:42;30.60;99.90
52321;DHT22;38261;54.090;13.382;2023-06-26T04:40:05;31.00;99.90
52321;DHT22;38261;54.090;13.382;2023-06-26T04:41:27;31.50;99.90
52321;DHT22;38261;54.090;13.382;2023-06-26T04:42:50;31.80;99.90
52321;DHT22;38261;54.090;13.382;2023-06-26T04:44:12;32.10;99.90
52321;DHT22;38261;54.090;13.382;2023-06-26T04:45:34;32.30;99.90
52321;DHT22;38261;54.090;13.382;2023-06-26T04:48:19;32.80;99.90
52321;DHT22;38261;54.090;13.382;2023-06-26T04:49:41;33.00;99.90
52321;DHT22;38261;54.090;13.382;2023-06-26T04:52:30;33.40;99.90
52321;DHT22;38261;54.090;13.382;2023-06-26T04:53:52;33.60;99.90
52321;DHT22;38261;54.090;13.382;2023-06-26T04:55:14;33.70;99.90
52321;DHT22;38261;54.090;13.382;2023-06-26T04:56:37;33.90;99.90
52321;DHT22;38261;54.090;13.382;2023-06-26T04:58:01;34.10;99.90
52321;DHT22;38261;54.090;13.382;2023-06-26T04:59:23;34.30;99.90
52321;DHT22;38261;54.090;13.382;2023-06-26T05:00:46;34.40;99.90
52321;DHT22;38261;54.090;13.382;2023-06-26T05:02:08;34.50;99.90
52321;DHT22;38261;54.090;13.382;2023-06-26T05:03:30;34.50;99.90
52321;DHT22;38261;54.090;13.382;2023-06-26T05:04:53;34.60;99.90
52321;DHT22;38261;54.090;13.382;2023-06-26T05:06:15;34.70;99.90
52321;DHT22;38261;54.090;13.382;2023-06-26T05:07:41;34.80;99.90
52321;DHT22;38261;54.090;13.382;2023-06-26T05:09:04;34.90;99.90
52321;DHT22;38261;54.090;13.382;2023-06-26T05:10:26;35.10;99.90
52321;DHT22;38261;54.090;13.382;2023-06-26T05:11:48;35.30;99.90
52321;DHT22;38261;54.090;13.382;2023-06-26T05:13:13;35.40;99.90
52321;DHT22;38261;54.090;13.382;2023-06-26T05:14:39;35.40;99.90
52321;DHT22;38261;54.090;13.382;2023-06-26T05:16:01;35.50;99.90
52321;DHT22;38261;54.090;13.382;2023-06-26T05:17:23;35.40;99.90
52321;DHT22;38261;54.090;13.382;2023-06-26T05:18:45;35.40;99.90
52321;DHT22;38261;54.090;13.382;2023-06-26T05:20:08;35.50;99.90
52321;DHT22;38261;54.090;13.382;2023-06-26T05:21:31;35.50;99.90
52321;DHT22;38261;54.090;13.382;2023-06-26T05:22:53;35.50;99.90
52321;DHT22;38261;54.090;13.382;2023-06-26T05:24:15;35.50;99.90
52321;DHT22;38261;54.090;13.382;2023-06-26T05:25:38;35.50;99.90
52321;DHT22;38261;54.090;13.382;2023-06-26T05:27:01;35.60;99.90
52321;DHT22;38261;54.090;13.382;2023-06-26T05:28:24;35.60;99.90
52321;DHT22;38261;54.090;13.382;2023-06-26T05:29:47;35.70;99.90
52321;DHT22;38261;54.090;13.382;2023-06-26T05:31:09;35.80;99.90
52321;DHT22;38261;54.090;13.382;2023-06-26T05:32:34;36.00;99.90
52321;DHT22;38261;54.090;13.382;2023-06-26T05:33:57;36.00;99.90
52321;DHT22;38261;54.090;13.382;2023-06-26T05:35:22;36.00;99.90
52321;DHT22;38261;54.090;13.382;2023-06-26T05:36:46;35.90;99.90
52321;DHT22;38261;54.090;13.382;2023-06-26T05:38:10;35.80;99.90
52321;DHT22;38261;54.090;13.382;2023-06-26T05:39:32;35.80;99.90
52321;DHT22;38261;54.090;13.382;2023-06-26T05:40:55;35.80;99.90
52321;DHT22;38261;54.090;13.382;2023-06-26T05:42:17;35.90;99.90
52321;DHT22;38261;54.090;13.382;2023-06-26T05:43:39;36.00;99.90
52321;DHT22;38261;54.090;13.382;2023-06-26T05:45:02;36.10;99.90
52321;DHT22;38261;54.090;13.382;2023-06-26T05:46:24;36.00;99.90
52321;DHT22;38261;54.090;13.382;2023-06-26T05:47:46;36.20;99.90
52321;DHT22;38261;54.090;13.382;2023-06-26T05:49:08;36.30;99.90
52321;DHT22;38261;54.090;13.382;2023-06-26T05:50:30;36.30;99.90
52321;DHT22;38261;54.090;13.382;2023-06-26T05:51:53;36.30;99.90
52321;DHT22;38261;54.090;13.382;2023-06-26T05:53:16;36.30;99.90
52321;DHT22;38261;54.090;13.382;2023-06-26T05:54:38;36.30;99.90
52321;DHT22;38261;54.090;13.382;2023-06-26T05:56:00;36.20;99.90
52321;DHT22;38261;54.090;13.382;2023-06-26T05:57:22;36.20;99.90
52321;DHT22;38261;54.090;13.382;2023-06-26T05:58:45;36.00;99.90
52321;DHT22;38261;54.090;13.382;2023-06-26T06:00:08;35.90;99.90
52321;DHT22;38261;54.090;13.382;2023-06-26T06:01:32;35.90;99.90
52321;DHT22;38261;54.090;13.382;2023-06-26T06:02:55;35.80;99.90
52321;DHT22;38261;54.090;13.382;2023-06-26T06:04:18;35.80;99.90
52321;DHT22;38261;54.090;13.382;2023-06-26T06:05:40;35.80;99.90
52321;DHT22;38261;54.090;13.382;2023-06-26T06:07:02;35.90;99.90
52321;DHT22;38261;54.090;13.382;2023-06-26T06:08:24;35.80;99.90
52321;DHT22;38261;54.090;13.382;2023-06-26T06:09:46;35.80;99.90
52321;DHT22;38261;54.090;13.382;2023-06-26T06:11:08;35.90;99.90
52321;DHT22;38261;54.090;13.382;2023-06-26T06:12:30;35.90;99.90
52321;DHT22;38261;54.090;13.382;2023-06-26T06:13:53;35.90;99.90
52321;DHT22;38261;54.090;13.382;2023-06-26T06:15:17;35.70;99.90
52321;DHT22;38261;54.090;13.382;2023-06-26T06:16:39;35.70;99.90
52321;DHT22;38261;54.090;13.382;2023-06-26T06:18:03;35.70;99.90
52321;DHT22;38261;54.090;13.382;2023-06-26T06:19:26;35.60;99.90
52321;DHT22;38261;54.090;13.382;2023-06-26T06:20:48;35.40;99.90
52321;DHT22;38261;54.090;13.382;2023-06-26T06:22:10;35.40;99.90
52321;DHT22;38261;54.090;13.382;2023-06-26T06:23:32;35.50;99.90
52321;DHT22;38261;54.090;13.382;2023-06-26T06:24:54;35.30;99.90
52321;DHT22;38261;54.090;13.382;2023-06-26T06:26:16;35.20;99.90
52321;DHT22;38261;54.090;13.382;2023-06-26T06:27:39;35.20;99.90
52321;DHT22;38261;54.090;13.382;2023-06-26T06:29:01;35.00;99.90
52321;DHT22;38261;54.090;13.382;2023-06-26T06:30:23;34.80;99.90
52321;DHT22;38261;54.090;13.382;2023-06-26T06:32:04;34.50;99.90
52321;DHT22;38261;54.090;13.382;2023-06-26T06:33:27;34.10;99.90
52321;DHT22;38261;54.090;13.382;2023-06-26T06:34:49;33.80;99.90
52321;DHT22;38261;54.090;13.382;2023-06-26T06:36:11;33.50;99.90
52321;DHT22;38261;54.090;13.382;2023-06-26T06:37:33;33.10;99.90
52321;DHT22;38261;54.090;13.382;2023-06-26T06:38:55;32.80;99.90
52321;DHT22;38261;54.090;13.382;2023-06-26T06:40:17;32.60;99.90
52321;DHT22;38261;54.090;13.382;2023-06-26T06:41:39;32.20;99.90
52321;DHT22;38261;54.090;13.382;2023-06-26T06:43:02;32.10;99.90
52321;DHT22;38261;54.090;13.382;2023-06-26T06:44:24;31.90;99.90
52321;DHT22;38261;54.090;13.382;2023-06-26T06:45:46;31.80;99.90
52321;DHT22;38261;54.090;13.382;2023-06-26T06:47:08;31.60;99.90
52321;DHT22;38261;54.090;13.382;2023-06-26T06:48:31;31.40;99.90
52321;DHT22;38261;54.090;13.382;2023-06-26T06:49:53;31.30;99.90
52321;DHT22;38261;54.090;13.382;2023-06-26T06:51:15;31.30;99.90
52321;DHT22;38261;54.090;13.382;2023-06-26T06:52:39;31.20;99.90
52321;DHT22;38261;54.090;13.382;2023-06-26T06:54:02;31.20;99.90
52321;DHT22;38261;54.090;13.382;2023-06-26T06:55:24;31.30;99.90
52321;DHT22;38261;54.090;13.382;2023-06-26T06:56:47;31.30;99.90
52321;DHT22;38261;54.090;13.382;2023-06-26T06:58:09;31.20;99.90
52321;DHT22;38261;54.090;13.382;2023-06-26T06:59:31;31.20;99.90
52321;DHT22;38261;54.090;13.382;2023-06-26T07:00:54;31.20;99.90
52321;DHT22;38261;54.090;13.382;2023-06-26T07:02:17;31.20;99.90
52321;DHT22;38261;54.090;13.382;2023-06-26T07:03:40;31.20;99.90
52321;DHT22;38261;54.090;13.382;2023-06-26T07:05:03;31.10;99.90
52321;DHT22;38261;54.090;13.382;2023-06-26T07:06:25;31.10;99.90
52321;DHT22;38261;54.090;13.382;2023-06-26T07:07:47;31.00;99.90
52321;DHT22;38261;54.090;13.382;2023-06-26T07:09:10;30.80;99.90
52321;DHT22;38261;54.090;13.382;2023-06-26T07:10:32;30.80;99.90
52321;DHT22;38261;54.090;13.382;2023-06-26T07:11:54;30.70;99.90
52321;DHT22;38261;54.090;13.382;2023-06-26T07:13:16;30.80;99.90
52321;DHT22;38261;54.090;13.382;2023-06-26T07:14:39;30.80;99.90
52321;DHT22;38261;54.090;13.382;2023-06-26T07:16:01;30.70;99.90
52321;DHT22;38261;54.090;13.382;2023-06-26T07:17:23;30.70;99.90
52321;DHT22;38261;54.090;13.382;2023-06-26T07:18:45;30.60;99.90
52321;DHT22;38261;54.090;13.382;2023-06-26T07:20:08;30.50;99.90
52321;DHT22;38261;54.090;13.382;2023-06-26T07:21:32;30.40;99.90
52321;DHT22;38261;54.090;13.382;2023-06-26T07:22:54;30.40;99.90
52321;DHT22;38261;54.090;13.382;2023-06-26T07:24:16;30.30;99.90
52321;DHT22;38261;54.090;13.382;2023-06-26T07:25:38;30.30;99.90
52321;DHT22;38261;54.090;13.382;2023-06-26T07:27:00;30.20;99.90
52321;DHT22;38261;54.090;13.382;2023-06-26T07:28:22;30.30;99.90
52321;DHT22;38261;54.090;13.382;2023-06-26T07:29:45;30.30;99.90
52321;DHT22;38261;54.090;13.382;2023-06-26T07:31:08;30.30;99.90
52321;DHT22;38261;54.090;13.382;2023-06-26T07:32:30;30.30;99.90
52321;DHT22;38261;54.090;13.382;2023-06-26T07:33:52;30.30;99.90
52321;DHT22;38261;54.090;13.382;2023-06-26T07:35:15;30.40;99.90
52321;DHT22;38261;54.090;13.382;2023-06-26T07:36:37;30.40;99.90
52321;DHT22;38261;54.090;13.382;2023-06-26T07:38:00;30.40;99.90
52321;DHT22;38261;54.090;13.382;2023-06-26T07:39:22;30.40;99.90
52321;DHT22;38261;54.090;13.382;2023-06-26T07:40:45;30.40;99.90
52321;DHT22;38261;54.090;13.382;2023-06-26T07:42:07;30.30;99.90
52321;DHT22;38261;54.090;13.382;2023-06-26T07:43:29;30.30;99.90
52321;DHT22;38261;54.090;13.382;2023-06-26T07:44:51;30.20;99.90
52321;DHT22;38261;54.090;13.382;2023-06-26T07:46:13;30.20;99.90
52321;DHT22;38261;54.090;13.382;2023-06-26T07:47:39;30.20;99.90
52321;DHT22;38261;54.090;13.382;2023-06-26T07:49:01;30.30;99.90
52321;DHT22;38261;54.090;13.382;2023-06-26T07:50:23;30.20;99.90
52321;DHT22;38261;54.090;13.382;2023-06-26T07:51:45;30.30;99.90
52321;DHT22;38261;54.090;13.382;2023-06-26T07:53:08;30.40;99.90
52321;DHT22;38261;54.090;13.382;2023-06-26T07:54:30;30.50;99.90
52321;DHT22;38261;54.090;13.382;2023-06-26T07:55:52;30.40;99.90
52321;DHT22;38261;54.090;13.382;2023-06-26T07:57:14;30.40;99.90
52321;DHT22;38261;54.090;13.382;2023-06-26T07:58:36;30.40;99.90
52321;DHT22;38261;54.090;13.382;2023-06-26T08:00:00;30.40;99.90
52321;DHT22;38261;54.090;13.382;2023-06-26T08:01:23;30.40;99.90
52321;DHT22;38261;54.090;13.382;2023-06-26T08:02:45;30.40;99.90
52321;DHT22;38261;54.090;13.382;2023-06-26T08:04:08;30.40;99.90
52321;DHT22;38261;54.090;13.382;2023-06-26T08:05:32;30.50;99.90
52321;DHT22;38261;54.090;13.382;2023-06-26T08:06:56;30.50;99.90
52321;DHT22;38261;54.090;13.382;2023-06-26T08:08:19;30.50;99.90
52321;DHT22;38261;54.090;13.382;2023-06-26T08:09:41;30.50;99.90
52321;DHT22;38261;54.090;13.382;2023-06-26T08:11:03;30.40;99.90
52321;DHT22;38261;54.090;13.382;2023-06-26T08:12:26;30.40;99.90
52321;DHT22;38261;54.090;13.382;2023-06-26T08:13:48;30.30;99.90
52321;DHT22;38261;54.090;13.382;2023-06-26T08:15:11;30.30;99.90
52321;DHT22;38261;54.090;13.382;2023-06-26T08:16:33;30.40;99.90
52321;DHT22;38261;54.090;13.382;2023-06-26T08:17:56;30.40;99.90
52321;DHT22;38261;54.090;13.382;2023-06-26T08:19:18;30.50;99.90
52321;DHT22;38261;54.090;13.382;2023-06-26T08:20:40;30.50;99.90
52321;DHT22;38261;54.090;13.382;2023-06-26T08:22:02;30.70;99.90
52321;DHT22;38261;54.090;13.382;2023-06-26T08:23:25;30.70;99.90
52321;DHT22;38261;54.090;13.382;2023-06-26T08:24:48;30.80;99.90
52321;DHT22;38261;54.090;13.382;2023-06-26T08:26:10;30.90;99.90
52321;DHT22;38261;54.090;13.382;2023-06-26T08:27:32;31.00;99.90
52321;DHT22;38261;54.090;13.382;2023-06-26T08:28:55;31.10;99.90
52321;DHT22;38261;54.090;13.382;2023-06-26T08:30:17;31.10;99.90
52321;DHT22;38261;54.090;13.382;2023-06-26T08:31:39;31.10;99.90
52321;DHT22;38261;54.090;13.382;2023-06-26T08:33:02;31.20;99.90
52321;DHT22;38261;54.090;13.382;2023-06-26T08:34:24;31.30;99.90
52321;DHT22;38261;54.090;13.382;2023-06-26T08:35:46;31.20;99.90
52321;DHT22;38261;54.090;13.382;2023-06-26T08:37:09;31.30;99.90
52321;DHT22;38261;54.090;13.382;2023-06-26T08:38:31;31.30;99.90
52321;DHT22;38261;54.090;13.382;2023-06-26T08:39:53;31.20;99.90
52321;DHT22;38261;54.090;13.382;2023-06-26T08:41:15;31.10;99.90